Time;durP1;ratioP1;P1;durP2;ratioP2;P2;SDS_P1;SDS_P2;PMS_P1;PMS_P2;Temp;Humidity;BMP_temperature;BMP_pressure;BME280_temperature;BME280_humidity;BME280_pressure;Samples;Min_cycle;Max_cycle;Signal;HPM_P1;HPM_P2
2021/05/28 00:02:00;;;;;;;11.52;9.15;;;20.60;82.10;;;;;;5074132;28;20111;-78
2021/05/28 00:04:26;;;;;;;15.02;9.90;;;20.60;82.10;;;;;;5073686;28;20071;-77
2021/05/28 00:06:52;;;;;;;11.57;9.38;;;20.60;82.10;;;;;;5068645;28;20104;-77
2021/05/28 00:09:17;;;;;;;11.27;9.63;;;20.60;82.20;;;;;;5054322;28;20108;-77
2021/05/28 00:11:43;;;;;;;12.07;9.85;;;20.60;82.30;;;;;;5054217;28;20032;-77
2021/05/28 00:14:09;;;;;;;11.23;9.45;;;20.60;82.10;;;;;;5067045;28;20067;-77
2021/05/28 00:16:36;;;;;;;12.10;9.77;;;20.60;82.10;;;;;;5074076;28;20496;-77
2021/05/28 00:19:03;;;;;;;13.90;10.05;;;20.60;82.10;;;;;;5073955;28;20483;-77
2021/05/28 00:21:29;;;;;;;12.75;9.27;;;20.60;82.20;;;;;;5072472;28;20444;-77
2021/05/28 00:23:55;;;;;;;12.68;10.32;;;20.60;82.30;;;;;;5073838;28;20021;-77
2021/05/28 00:26:20;;;;;;;12.77;9.68;;;20.50;82.20;;;;;;5073668;28;20097;-77
2021/05/28 00:28:49;;;;;;;13.23;9.68;;;20.50;82.20;;;;;;5074118;28;20028;-77
2021/05/28 00:31:19;;;;;;;16.85;9.63;;;20.50;82.40;;;;;;5072238;28;20368;-77
2021/05/28 00:33:45;;;;;;;11.77;10.50;;;20.40;82.60;;;;;;5074427;28;20021;-77
2021/05/28 00:36:11;;;;;;;12.18;10.50;;;20.40;82.70;;;;;;5093254;28;20382;-77
2021/05/28 00:38:36;;;;;;;10.50;9.40;;;20.40;82.90;;;;;;5093621;28;20024;-77
2021/05/28 00:41:03;;;;;;;11.75;10.10;;;20.40;83.00;;;;;;5093375;28;20044;-77
2021/05/28 00:43:30;;;;;;;13.75;10.93;;;20.30;83.00;;;;;;5093282;28;20044;-77
2021/05/28 00:45:55;;;;;;;12.23;10.45;;;20.30;83.10;;;;;;5093383;28;20032;-77
2021/05/28 00:48:21;;;;;;;12.38;10.70;;;20.30;83.90;;;;;;5093631;28;20024;-77
2021/05/28 00:50:47;;;;;;;16.00;11.52;;;20.30;83.50;;;;;;5093608;28;20024;-77
2021/05/28 00:53:14;;;;;;;15.68;11.48;;;20.20;83.60;;;;;;5093155;28;20068;-77
2021/05/28 00:55:40;;;;;;;14.38;11.65;;;20.20;83.90;;;;;;5093697;28;20028;-77
2021/05/28 00:58:07;;;;;;;14.80;11.15;;;20.20;84.10;;;;;;5092366;28;20077;-76
2021/05/28 01:00:33;;;;;;;13.38;11.98;;;20.10;84.40;;;;;;5092400;28;20074;-75
2021/05/28 01:02:59;;;;;;;14.40;11.07;;;20.00;84.50;;;;;;5093572;28;20032;-77
2021/05/28 01:05:25;;;;;;;13.02;11.40;;;20.00;84.80;;;;;;5093834;28;20031;-77
2021/05/28 01:07:51;;;;;;;16.27;12.15;;;19.90;85.10;;;;;;5093487;28;20477;-77
2021/05/28 01:10:17;;;;;;;13.43;11.25;;;19.90;85.30;;;;;;5093417;28;20024;-77
2021/05/28 01:12:43;;;;;;;13.80;11.30;;;19.90;85.60;;;;;;5093291;28;20030;-77
2021/05/28 01:15:10;;;;;;;13.85;12.27;;;19.90;85.80;;;;;;5109233;28;20381;-77
2021/05/28 01:17:36;;;;;;;14.98;11.45;;;19.80;86.10;;;;;;5093402;28;20028;-76
2021/05/28 01:20:07;;;;;;;12.65;11.45;;;19.90;86.20;;;;;;5093444;28;20058;-76
2021/05/28 01:22:33;;;;;;;14.48;12.18;;;19.80;86.20;;;;;;5093306;28;20039;-77
2021/05/28 01:25:00;;;;;;;12.75;11.45;;;19.80;86.20;;;;;;5093180;28;20059;-77
2021/05/28 01:27:30;;;;;;;16.48;11.48;;;19.80;86.20;;;;;;5113019;28;20059;-77
2021/05/28 01:29:56;;;;;;;16.10;13.25;;;19.80;86.20;;;;;;5097256;28;20036;-76
2021/05/28 01:32:23;;;;;;;15.65;12.50;;;19.80;86.10;;;;;;5096752;28;20500;-76
2021/05/28 01:34:50;;;;;;;18.33;13.23;;;19.80;86.20;;;;;;5112891;28;20119;-77
2021/05/28 01:37:17;;;;;;;25.48;15.60;;;19.80;86.40;;;;;;5096922;28;20347;-76
2021/05/28 01:39:53;;;;;;;20.98;14.75;;;19.80;86.60;;;;;;5095745;28;20020;-76
2021/05/28 01:42:19;;;;;;;16.33;13.60;;;19.80;86.70;;;;;;5112681;28;20043;-76
2021/05/28 01:44:46;;;;;;;21.63;15.02;;;19.80;86.80;;;;;;5096875;28;20025;-76
2021/05/28 01:47:13;;;;;;;21.25;15.73;;;19.90;86.90;;;;;;5096638;28;20035;-76
2021/05/28 01:49:40;;;;;;;18.70;13.73;;;19.90;86.70;;;;;;5096567;28;20016;-76
2021/05/28 01:52:08;;;;;;;15.82;13.32;;;19.90;86.60;;;;;;5096970;28;20055;-76
2021/05/28 01:54:35;;;;;;;15.63;13.35;;;19.90;86.40;;;;;;5096781;28;20024;-76
2021/05/28 01:57:05;;;;;;;15.18;12.73;;;20.00;86.40;;;;;;5112642;28;20105;-76
2021/05/28 01:59:30;;;;;;;16.13;12.98;;;19.90;86.30;;;;;;5096636;28;20025;-76
2021/05/28 02:01:56;;;;;;;18.00;12.98;;;19.90;86.30;;;;;;5096777;28;20040;-76
2021/05/28 02:04:23;;;;;;;15.75;13.50;;;19.90;86.40;;;;;;5096798;28;20089;-77
2021/05/28 02:06:49;;;;;;;15.55;12.60;;;19.90;86.50;;;;;;5096154;28;20024;-76
2021/05/28 02:09:15;;;;;;;14.32;12.60;;;19.90;86.70;;;;;;5096297;28;20035;-76
2021/05/28 02:11:40;;;;;;;14.65;12.95;;;19.90;86.80;;;;;;5096513;28;20046;-76
2021/05/28 02:14:06;;;;;;;15.05;12.95;;;19.90;86.90;;;;;;5096479;28;20059;-76
2021/05/28 02:16:33;;;;;;;16.80;13.65;;;19.90;87.00;;;;;;5096363;28;20073;-77
2021/05/28 02:19:00;;;;;;;16.35;14.50;;;19.90;87.30;;;;;;5112110;28;20031;-76
2021/05/28 02:21:25;;;;;;;18.45;15.15;;;19.90;87.50;;;;;;5112045;28;20024;-77
2021/05/28 02:23:52;;;;;;;18.88;15.40;;;19.80;87.70;;;;;;5096060;28;20032;-76
2021/05/28 02:26:17;;;;;;;17.48;14.48;;;19.80;88.00;;;;;;5094900;28;20028;-76
2021/05/28 02:28:43;;;;;;;17.42;15.60;;;19.80;88.20;;;;;;5096150;28;20020;-76
2021/05/28 02:31:09;;;;;;;19.65;15.95;;;19.70;88.30;;;;;;5094699;28;20028;-76
2021/05/28 02:33:36;;;;;;;19.92;16.70;;;19.70;88.50;;;;;;5093938;28;20028;-77
2021/05/28 02:36:03;;;;;;;21.60;16.67;;;19.70;88.80;;;;;;5094168;28;20025;-76
2021/05/28 02:38:29;;;;;;;22.65;17.00;;;19.70;89.10;;;;;;5095671;28;20024;-77
2021/05/28 02:40:55;;;;;;;22.58;16.58;;;19.70;89.30;;;;;;5096481;28;20051;-76
2021/05/28 02:43:20;;;;;;;18.73;15.70;;;19.70;89.40;;;;;;5087495;28;20090;-76
2021/05/28 02:45:46;;;;;;;19.38;16.70;;;19.70;89.50;;;;;;5075517;28;20024;-76
2021/05/28 02:48:12;;;;;;;24.33;17.15;;;19.70;89.60;;;;;;5075471;28;20052;-76
2021/05/28 02:50:37;;;;;;;20.40;16.95;;;19.70;89.80;;;;;;5075292;28;20056;-77
2021/05/28 02:53:03;;;;;;;21.60;17.08;;;19.70;89.90;;;;;;5075562;28;20490;-76
2021/05/28 02:55:32;;;;;;;20.92;17.35;;;19.70;90.00;;;;;;5075331;28;20033;-76
2021/05/28 02:57:58;;;;;;;18.38;15.88;;;19.80;90.00;;;;;;5074960;28;20056;-76
2021/05/28 03:00:24;;;;;;;19.88;16.15;;;19.80;90.00;;;;;;5075157;28;20026;-76
2021/05/28 03:02:50;;;;;;;19.02;16.58;;;19.80;90.00;;;;;;5074843;28;20032;-77
2021/05/28 03:05:17;;;;;;;21.20;16.63;;;19.90;90.00;;;;;;5075034;28;20035;-76
2021/05/28 03:07:43;;;;;;;18.67;16.35;;;19.90;90.00;;;;;;5075280;28;20025;-76
2021/05/28 03:10:10;;;;;;;20.02;16.45;;;20.00;90.00;;;;;;5075039;28;20032;-76
2021/05/28 03:12:36;;;;;;;18.73;16.83;;;20.00;90.00;;;;;;5074549;28;20047;-76
2021/05/28 03:15:02;;;;;;;21.02;16.90;;;20.10;89.80;;;;;;5075395;28;20028;-76
2021/05/28 03:17:28;;;;;;;20.90;16.38;;;20.20;89.50;;;;;;5075034;28;20351;-76
2021/05/28 03:19:54;;;;;;;19.60;16.15;;;20.30;89.10;;;;;;5074682;28;20111;-76
2021/05/28 03:22:33;;;;;;;18.95;15.73;;;20.30;88.80;;;;;;5074742;28;20442;-76
2021/05/28 03:25:04;;;;;;;18.48;16.08;;;20.30;88.50;;;;;;5074687;28;20052;-76
2021/05/28 03:27:30;;;;;;;19.10;15.70;;;20.40;88.30;;;;;;5074758;28;20025;-76
2021/05/28 03:29:56;;;;;;;18.23;16.02;;;20.50;88.20;;;;;;5074531;28;20040;-77
2021/05/28 03:32:23;;;;;;;19.35;16.55;;;20.50;88.00;;;;;;5074479;28;20032;-75
2021/05/28 03:34:49;;;;;;;18.92;16.13;;;20.60;87.60;;;;;;5074473;28;20036;-75
2021/05/28 03:37:15;;;;;;;20.13;16.80;;;20.60;87.10;;;;;;5074704;28;20074;-75
2021/05/28 03:39:44;;;;;;;19.23;16.45;;;20.60;86.90;;;;;;5073016;28;20029;-76
2021/05/28 03:42:09;;;;;;;19.77;17.55;;;20.60;86.80;;;;;;5073856;28;20053;-76
2021/05/28 03:44:35;;;;;;;19.05;16.00;;;20.60;86.70;;;;;;5074238;28;20033;-76
2021/05/28 03:47:01;;;;;;;24.25;16.98;;;20.70;86.60;;;;;;5073992;28;20025;-76
2021/05/28 03:49:26;;;;;;;18.98;16.15;;;20.80;86.20;;;;;;5073528;28;20039;-76
2021/05/28 03:51:52;;;;;;;20.55;15.82;;;20.90;85.90;;;;;;5073740;28;20039;-76
2021/05/28 03:54:18;;;;;;;21.15;15.80;;;21.00;86.30;;;;;;5073881;28;20031;-76
2021/05/28 03:56:44;;;;;;;19.10;14.90;;;21.00;85.30;;;;;;5073987;28;20443;-76
2021/05/28 03:59:09;;;;;;;16.92;14.23;;;21.10;84.90;;;;;;5073801;28;20024;-76
2021/05/28 04:01:35;;;;;;;18.85;14.75;;;21.30;84.50;;;;;;5073653;28;20060;-76
2021/05/28 04:04:01;;;;;;;15.45;13.35;;;21.40;83.90;;;;;;5093232;28;20428;-75
2021/05/28 04:06:26;;;;;;;15.48;13.82;;;21.50;83.30;;;;;;5093974;28;20028;-75
2021/05/28 04:08:52;;;;;;;15.88;12.55;;;21.60;82.90;;;;;;5094031;28;20024;-76
2021/05/28 04:11:18;;;;;;;20.70;15.57;;;21.70;82.50;;;;;;5093722;28;20359;-76
2021/05/28 04:13:44;;;;;;;18.67;13.88;;;21.80;82.10;;;;;;5092684;28;20039;-76
2021/05/28 04:16:10;;;;;;;18.83;13.77;;;21.80;81.70;;;;;;5094145;28;20474;-75
2021/05/28 04:18:35;;;;;;;15.20;13.55;;;21.80;81.20;;;;;;5093558;28;20126;-76
2021/05/28 04:21:01;;;;;;;15.52;13.90;;;21.90;80.90;;;;;;5093807;28;20047;-76
2021/05/28 04:23:27;;;;;;;19.52;15.05;;;21.80;80.50;;;;;;5093589;28;20035;-76
2021/05/28 04:25:52;;;;;;;15.27;13.27;;;21.90;80.50;;;;;;5092947;28;20024;-75
2021/05/28 04:28:18;;;;;;;15.90;14.18;;;21.80;80.30;;;;;;5093754;28;20425;-75
2021/05/28 04:30:45;;;;;;;16.05;14.32;;;21.90;80.40;;;;;;5093241;28;20111;-75
2021/05/28 04:33:10;;;;;;;18.30;14.48;;;21.90;80.30;;;;;;5093314;28;20032;-76
2021/05/28 04:35:36;;;;;;;17.02;13.45;;;21.80;80.20;;;;;;5093592;28;20081;-76
2021/05/28 04:38:02;;;;;;;18.52;14.30;;;21.80;80.20;;;;;;5093575;28;20047;-74
2021/05/28 04:40:30;;;;;;;16.05;14.32;;;21.80;80.20;;;;;;5093711;28;20040;-75
2021/05/28 04:42:56;;;;;;;15.70;12.82;;;21.90;80.20;;;;;;5093412;28;20071;-75
2021/05/28 04:45:22;;;;;;;16.70;14.25;;;21.90;80.30;;;;;;5093533;28;20507;-74
2021/05/28 04:47:48;;;;;;;18.23;13.77;;;21.90;80.20;;;;;;5075461;28;20025;-76
2021/05/28 04:50:14;;;;;;;15.43;13.23;;;22.00;80.20;;;;;;5073084;28;20490;-76
2021/05/28 04:52:42;;;;;;;15.82;13.02;;;22.00;79.90;;;;;;5073325;28;20024;-75
2021/05/28 04:55:08;;;;;;;15.75;12.00;;;22.10;79.80;;;;;;5072383;28;20047;-78
2021/05/28 04:57:34;;;;;;;15.48;13.15;;;22.20;79.50;;;;;;5064308;28;20087;-75
2021/05/28 05:00:00;;;;;;;15.70;12.55;;;22.20;79.20;;;;;;5062376;28;20029;-76
2021/05/28 05:02:25;;;;;;;15.35;11.75;;;22.30;78.80;;;;;;5066248;28;20490;-76
2021/05/28 05:04:51;;;;;;;13.50;11.15;;;22.30;78.30;;;;;;5067624;28;20020;-76
2021/05/28 05:07:17;;;;;;;14.30;12.50;;;22.30;78.10;;;;;;5065912;28;20020;-75
2021/05/28 05:09:42;;;;;;;18.85;12.95;;;22.40;78.10;;;;;;5077116;28;20031;-76
2021/05/28 05:12:08;;;;;;;15.30;12.85;;;22.40;78.00;;;;;;5074081;28;20057;-75
2021/05/28 05:14:34;;;;;;;17.80;13.23;;;22.40;77.90;;;;;;5065615;28;20020;-75
2021/05/28 05:17:00;;;;;;;15.65;13.02;;;22.40;77.90;;;;;;5066990;28;20017;-77
2021/05/28 05:19:26;;;;;;;16.48;13.73;;;22.40;77.90;;;;;;5065581;28;20078;-77
2021/05/28 05:21:53;;;;;;;16.35;13.75;;;22.50;78.00;;;;;;5071038;28;20104;-77
2021/05/28 05:24:19;;;;;;;15.23;13.07;;;22.50;77.90;;;;;;5077049;28;20047;-77
2021/05/28 05:26:44;;;;;;;16.50;12.63;;;22.60;77.30;;;;;;5076781;28;20021;-77
2021/05/28 05:29:10;;;;;;;14.88;12.05;;;22.70;77.00;;;;;;5076674;28;20050;-75
2021/05/28 05:31:39;;;;;;;14.18;10.90;;;22.70;76.70;;;;;;5076515;28;20062;-75
2021/05/28 05:34:05;;;;;;;12.10;9.60;;;22.80;76.20;;;;;;5075908;28;20355;-75
2021/05/28 05:36:32;;;;;;;11.70;10.30;;;22.90;75.60;;;;;;5076545;28;20039;-77
2021/05/28 05:38:58;;;;;;;14.95;10.45;;;22.90;75.20;;;;;;5076337;28;20108;-76
2021/05/28 05:41:25;;;;;;;12.43;9.90;;;23.00;75.00;;;;;;5076838;28;20083;-75
2021/05/28 05:43:51;;;;;;;12.43;9.13;;;23.10;74.90;;;;;;5076442;28;20029;-76
2021/05/28 05:46:17;;;;;;;11.15;9.95;;;23.20;74.60;;;;;;5076728;28;20107;-75
2021/05/28 05:48:43;;;;;;;10.00;8.27;;;23.30;74.20;;;;;;5076293;28;20435;-76
2021/05/28 05:51:09;;;;;;;11.23;8.10;;;23.40;73.30;;;;;;5076238;28;20037;-76
2021/05/28 05:53:34;;;;;;;9.70;8.45;;;23.50;72.90;;;;;;5076470;28;20075;-75
2021/05/28 05:56:00;;;;;;;9.55;7.78;;;23.50;73.30;;;;;;5075938;28;20467;-75
2021/05/28 05:58:26;;;;;;;11.35;7.82;;;23.70;72.40;;;;;;5076362;28;20025;-76
2021/05/28 06:00:51;;;;;;;9.38;7.22;;;23.80;71.90;;;;;;5076307;28;20101;-76
2021/05/28 06:03:17;;;;;;;9.40;7.15;;;24.00;71.30;;;;;;5075976;28;20382;-75
2021/05/28 06:05:44;;;;;;;7.85;6.78;;;24.20;70.80;;;;;;5075568;28;20029;-76
2021/05/28 06:08:10;;;;;;;9.65;7.45;;;24.30;70.00;;;;;;5074763;28;20048;-76
2021/05/28 06:10:35;;;;;;;8.95;7.35;;;24.40;69.50;;;;;;5076019;28;20036;-75
2021/05/28 06:13:05;;;;;;;9.75;6.43;;;24.50;69.10;;;;;;5075265;28;20063;-76
2021/05/28 06:15:32;;;;;;;8.07;6.45;;;24.50;68.30;;;;;;5075959;28;20021;-76
2021/05/28 06:17:58;;;;;;;7.07;6.03;;;24.60;68.00;;;;;;5075901;28;20107;-76
2021/05/28 06:20:24;;;;;;;12.27;7.22;;;24.70;67.80;;;;;;5074144;28;20056;-76
2021/05/28 06:22:50;;;;;;;8.98;6.70;;;24.80;67.30;;;;;;5075759;28;20541;-76
2021/05/28 06:25:16;;;;;;;9.18;6.05;;;25.00;67.10;;;;;;5075605;28;20063;-76
2021/05/28 06:27:42;;;;;;;7.18;6.47;;;25.10;66.50;;;;;;5075166;28;20425;-76
2021/05/28 06:30:09;;;;;;;6.63;6.00;;;25.10;66.10;;;;;;5075241;28;20035;-77
2021/05/28 06:32:35;;;;;;;7.15;5.50;;;25.30;66.00;;;;;;5075339;28;20078;-76
2021/05/28 06:35:01;;;;;;;8.10;5.85;;;25.30;65.20;;;;;;5075459;28;20440;-76
2021/05/28 06:37:26;;;;;;;5.35;4.80;;;25.50;64.60;;;;;;5074967;28;20021;-76
2021/05/28 06:39:52;;;;;;;9.60;5.20;;;25.60;64.10;;;;;;5075239;28;20459;-76
2021/05/28 06:42:18;;;;;;;6.75;5.30;;;25.80;63.60;;;;;;5073840;28;20032;-76
2021/05/28 06:44:43;;;;;;;9.50;5.75;;;25.90;63.10;;;;;;5090971;28;20029;-76
2021/05/28 06:47:09;;;;;;;11.93;7.13;;;26.00;62.90;;;;;;5075057;28;20024;-76
2021/05/28 06:49:35;;;;;;;16.95;4.95;;;26.10;62.60;;;;;;5073729;28;20056;-76
2021/05/28 06:52:01;;;;;;;10.55;4.78;;;26.10;61.90;;;;;;5073120;28;20036;-76
2021/05/28 06:58:01;;;;;;;7.82;5.00;;;26.00;60.80;;;;;;5075020;28;20063;-76
2021/05/28 07:00:27;;;;;;;5.95;4.72;;;26.00;60.80;;;;;;5054889;28;20532;-76
2021/05/28 07:02:56;;;;;;;10.82;5.45;;;26.00;60.80;;;;;;5074268;28;20086;-77
2021/05/28 07:05:24;;;;;;;12.00;5.32;;;26.00;60.80;;;;;;5094949;28;20028;-76
2021/05/28 07:07:51;;;;;;;5.70;4.85;;;26.00;60.90;;;;;;5095324;28;20051;-75
2021/05/28 07:10:17;;;;;;;6.13;5.45;;;25.90;60.30;;;;;;5095545;28;20028;-76
2021/05/28 07:12:42;;;;;;;8.00;5.55;;;26.00;60.00;;;;;;5094509;28;20094;-76
2021/05/28 07:15:09;;;;;;;8.68;5.22;;;26.00;60.00;;;;;;5095010;28;20044;-76
2021/05/28 07:17:35;;;;;;;5.88;4.25;;;26.10;60.60;;;;;;5094172;28;20028;-76
2021/05/28 07:20:03;;;;;;;10.45;4.40;;;26.10;59.60;;;;;;5094621;28;20097;-77
2021/05/28 07:22:28;;;;;;;5.50;3.40;;;26.20;59.50;;;;;;5094643;28;20035;-76
2021/05/28 07:24:54;;;;;;;6.38;3.95;;;26.30;58.70;;;;;;5094952;28;20028;-76
2021/05/28 07:27:20;;;;;;;6.65;4.10;;;26.40;58.40;;;;;;5094200;28;20016;-76
2021/05/28 07:29:46;;;;;;;5.55;3.92;;;26.40;58.50;;;;;;5095122;28;20032;-76
2021/05/28 07:32:11;;;;;;;5.07;4.47;;;26.50;58.00;;;;;;5110645;28;20028;-76
2021/05/28 07:34:38;;;;;;;4.28;3.78;;;26.60;58.00;;;;;;5094271;28;20416;-76
2021/05/28 07:37:05;;;;;;;4.38;3.92;;;26.70;57.50;;;;;;5094755;28;20032;-75
2021/05/28 07:39:32;;;;;;;4.32;3.92;;;26.70;57.10;;;;;;5094057;28;20055;-78
2021/05/28 07:42:00;;;;;;;6.45;4.28;;;26.80;56.90;;;;;;5094034;28;20501;-76
2021/05/28 07:44:26;;;;;;;4.60;3.55;;;27.00;56.90;;;;;;5094209;28;20032;-75
2021/05/28 07:46:52;;;;;;;6.57;3.70;;;27.10;57.10;;;;;;5093908;28;20039;-76
2021/05/28 07:49:18;;;;;;;5.32;3.95;;;27.10;56.20;;;;;;5094285;28;20024;-76
2021/05/28 07:51:44;;;;;;;5.88;3.90;;;27.20;55.70;;;;;;5094281;28;20024;-76
2021/05/28 07:54:09;;;;;;;4.22;3.83;;;27.20;56.10;;;;;;5080091;28;20482;-75
2021/05/28 07:56:36;;;;;;;5.13;3.75;;;27.30;56.00;;;;;;5073127;28;20029;-75
2021/05/28 07:59:02;;;;;;;6.40;3.70;;;27.50;54.70;;;;;;5073356;28;20485;-76
2021/05/28 08:01:28;;;;;;;5.55;3.42;;;27.60;54.40;;;;;;5074051;28;20024;-76
2021/05/28 08:03:56;;;;;;;4.70;3.25;;;27.70;53.40;;;;;;5073966;28;20391;-76
2021/05/28 08:06:22;;;;;;;5.88;3.70;;;27.90;52.50;;;;;;5073533;28;20021;-76
2021/05/28 08:08:48;;;;;;;3.17;2.83;;;28.00;52.30;;;;;;5073886;28;20025;-77
2021/05/28 08:11:14;;;;;;;5.10;3.70;;;28.20;51.60;;;;;;5073951;28;20450;-76
2021/05/28 08:13:40;;;;;;;3.60;3.30;;;28.30;51.40;;;;;;5073194;28;20040;-77
2021/05/28 08:16:06;;;;;;;5.13;3.45;;;28.50;51.00;;;;;;5073549;28;20033;-76
2021/05/28 08:18:32;;;;;;;3.60;3.30;;;28.60;50.80;;;;;;5073572;28;20397;-76
2021/05/28 08:20:58;;;;;;;13.15;3.67;;;28.80;50.80;;;;;;5073001;28;20021;-76
2021/05/28 08:23:24;;;;;;;4.43;3.00;;;29.00;49.80;;;;;;5092742;28;20028;-76
2021/05/28 08:25:50;;;;;;;6.30;3.60;;;29.10;49.00;;;;;;5093343;28;20485;-76
2021/05/28 08:28:19;;;;;;;4.07;3.50;;;29.40;50.20;;;;;;5093524;28;20085;-76
2021/05/28 08:30:46;;;;;;;7.07;3.30;;;29.60;48.90;;;;;;5093418;28;20024;-76
2021/05/28 08:33:13;;;;;;;5.60;4.28;;;29.90;48.40;;;;;;5092687;28;20105;-76
2021/05/28 08:35:42;;;;;;;5.50;3.08;;;30.10;48.30;;;;;;5075859;28;20512;-76
2021/05/28 08:38:09;;;;;;;7.05;3.13;;;30.30;47.90;;;;;;5085762;28;20024;-77
2021/05/28 08:40:35;;;;;;;4.95;3.40;;;30.60;47.80;;;;;;5093594;28;20047;-76
2021/05/28 08:43:02;;;;;;;4.68;3.67;;;30.90;47.60;;;;;;5093201;28;20036;-76
2021/05/28 08:45:35;;;;;;;3.80;3.00;;;31.10;47.00;;;;;;5093288;28;20385;-76
2021/05/28 08:48:02;;;;;;;4.63;3.40;;;31.40;45.90;;;;;;5093642;28;20038;-76
2021/05/28 08:50:28;;;;;;;9.40;3.30;;;31.60;45.60;;;;;;5092895;28;20530;-76
2021/05/28 08:52:54;;;;;;;6.50;3.53;;;31.90;45.10;;;;;;5093063;28;20067;-76
2021/05/28 08:55:20;;;;;;;14.25;4.30;;;32.20;45.50;;;;;;5092269;28;20031;-76
2021/05/28 08:57:45;;;;;;;4.90;3.40;;;32.40;45.30;;;;;;5093420;28;20109;-76
2021/05/28 09:00:12;;;;;;;6.60;3.30;;;32.60;45.00;;;;;;5093878;28;20035;-75
2021/05/28 09:02:39;;;;;;;5.53;3.25;;;32.90;44.80;;;;;;5108871;28;20024;-76
2021/05/28 09:05:23;;;;;;;4.45;3.38;;;33.20;44.70;;;;;;5093154;28;20047;-76
2021/05/28 09:08:01;;;;;;;5.78;3.90;;;33.50;44.30;;;;;;5081734;28;20035;-76
2021/05/28 09:10:35;;;;;;;5.78;3.65;;;33.80;44.70;;;;;;5061509;28;20035;-76
2021/05/28 09:13:22;;;;;;;8.77;4.20;;;34.10;44.60;;;;;;5060518;28;20104;-77
2021/05/28 09:16:07;;;;;;;8.13;3.92;;;34.50;44.30;;;;;;5059898;28;20044;-76
2021/05/28 09:18:44;;;;;;;14.63;4.00;;;34.80;44.20;;;;;;5061708;28;20032;-76
2021/05/28 09:21:13;;;;;;;12.32;3.47;;;35.10;43.90;;;;;;5061671;28;20107;-76
2021/05/28 09:23:39;;;;;;;8.05;4.15;;;35.30;43.60;;;;;;5060655;28;20474;-76
2021/05/28 09:26:09;;;;;;;5.95;3.90;;;35.80;43.30;;;;;;5062466;28;20155;-76
2021/05/28 09:28:51;;;;;;;6.25;3.70;;;36.20;43.00;;;;;;5062402;28;20052;-78
2021/05/28 09:31:21;;;;;;;4.32;3.58;;;36.70;42.50;;;;;;5062332;28;20099;-76
2021/05/28 09:33:49;;;;;;;4.65;3.28;;;37.20;42.30;;;;;;5063502;28;20041;-77
2021/05/28 09:36:22;;;;;;;8.15;3.75;;;37.80;41.80;;;;;;5071302;28;20078;-76
2021/05/28 09:39:15;;;;;;;6.43;3.40;;;38.40;41.50;;;;;;5054077;28;20167;-76
2021/05/28 09:41:51;;;;;;;7.63;3.78;;;39.10;40.60;;;;;;5062416;28;20552;-76
2021/05/28 09:44:22;;;;;;;13.05;3.58;;;39.80;40.20;;;;;;5068491;28;20471;-76
2021/05/28 09:46:57;;;;;;;5.72;4.45;;;40.40;39.40;;;;;;5055368;28;20021;-76
2021/05/28 09:49:25;;;;;;;4.22;3.30;;;41.10;38.50;;;;;;5055229;28;20087;-76
2021/05/28 09:52:19;;;;;;;5.53;3.53;;;41.50;38.00;;;;;;5056039;28;20024;-76
2021/05/28 09:54:59;;;;;;;3.83;3.20;;;41.80;37.20;;;;;;5070445;28;20123;-77
2021/05/28 09:57:44;;;;;;;6.53;3.00;;;42.30;36.90;;;;;;5092836;28;20077;-77
2021/05/28 10:00:31;;;;;;;3.95;3.22;;;42.70;36.20;;;;;;5112312;28;20385;-77
2021/05/28 10:03:23;;;;;;;5.13;3.40;;;43.10;35.80;;;;;;5096152;28;20119;-77
2021/05/28 10:05:55;;;;;;;3.95;3.17;;;43.50;35.90;;;;;;5076182;28;20028;-77
2021/05/28 10:08:23;;;;;;;4.50;2.67;;;43.90;35.60;;;;;;5073623;28;20028;-77
2021/05/28 10:10:51;;;;;;;7.80;3.50;;;44.20;34.90;;;;;;5079208;28;20027;-77
2021/05/28 10:13:22;;;;;;;3.95;2.53;;;44.50;35.10;;;;;;5095960;28;20101;-77
2021/05/28 10:15:53;;;;;;;8.90;3.50;;;44.60;33.70;;;;;;5112119;28;20040;-77
2021/05/28 10:18:21;;;;;;;12.13;3.92;;;44.30;33.70;;;;;;5092889;28;20028;-76
2021/05/28 10:20:52;;;;;;;7.25;3.50;;;44.00;33.60;;;;;;5075978;28;20125;-78
2021/05/28 10:23:18;;;;;;;5.15;3.25;;;44.20;33.10;;;;;;5074856;28;20429;-77
2021/05/28 10:25:45;;;;;;;8.85;3.33;;;44.50;32.80;;;;;;5075305;28;20033;-78
2021/05/28 10:28:16;;;;;;;4.68;3.00;;;44.90;32.90;;;;;;5074287;28;20094;-77
2021/05/28 10:30:44;;;;;;;5.88;3.13;;;45.20;32.40;;;;;;5054503;28;20120;-77
2021/05/28 10:33:30;;;;;;;10.00;3.00;;;45.60;32.10;;;;;;5055373;28;20139;-77
2021/05/28 10:35:59;;;;;;;7.10;3.30;;;45.90;31.70;;;;;;5048473;28;20097;-77
2021/05/28 10:38:33;;;;;;;3.25;2.88;;;46.20;31.20;;;;;;5055266;28;20079;-77
2021/05/28 10:41:07;;;;;;;4.32;2.53;;;46.50;30.20;;;;;;5053998;28;20049;-76
2021/05/28 10:43:48;;;;;;;10.07;3.17;;;46.70;29.80;;;;;;5055616;28;20044;-77
2021/05/28 10:46:15;;;;;;;5.43;3.00;;;46.90;29.80;;;;;;5055105;28;20026;-77
2021/05/28 10:48:43;;;;;;;8.63;3.03;;;47.30;29.80;;;;;;5043235;28;20064;-77
2021/05/28 10:51:22;;;;;;;6.45;2.90;;;47.50;29.40;;;;;;5055151;28;20093;-77
2021/05/28 10:53:51;;;;;;;10.25;3.38;;;47.30;29.20;;;;;;5054689;28;20553;-77
2021/05/28 10:56:22;;;;;;;8.07;2.95;;;47.00;29.10;;;;;;5055254;28;20033;-77
2021/05/28 10:59:03;;;;;;;3.10;2.80;;;46.60;29.10;;;;;;5062070;28;20024;-78
2021/05/28 11:01:34;;;;;;;7.78;3.17;;;45.50;29.30;;;;;;5075188;28;20027;-78
2021/05/28 11:04:06;;;;;;;8.70;3.28;;;44.20;29.70;;;;;;5073859;28;20428;-77
2021/05/28 11:06:52;;;;;;;7.60;2.80;;;43.20;30.00;;;;;;5075046;28;20024;-77
2021/05/28 11:09:18;;;;;;;4.22;2.83;;;42.40;30.20;;;;;;5066227;28;20048;-78
2021/05/28 11:11:44;;;;;;;6.38;3.28;;;41.50;30.60;;;;;;5056421;28;20029;-77
2021/05/28 11:14:14;;;;;;;9.75;3.80;;;40.60;31.10;;;;;;5054980;28;20029;-77
2021/05/28 11:17:06;;;;;;;6.38;3.13;;;39.60;31.40;;;;;;5054343;28;20079;-77
2021/05/28 11:19:41;;;;;;;9.57;3.85;;;38.60;32.10;;;;;;5069932;28;20390;-77
2021/05/28 11:22:12;;;;;;;12.50;4.25;;;37.70;32.60;;;;;;5074304;28;20499;-77
2021/05/28 11:24:48;;;;;;;6.72;3.97;;;37.00;33.20;;;;;;5074443;28;20094;-76
2021/05/28 11:27:25;;;;;;;5.35;3.15;;;36.40;33.50;;;;;;5073156;28;20025;-77
2021/05/28 11:30:02;;;;;;;4.00;3.33;;;35.70;33.70;;;;;;5064573;28;20048;-77
2021/05/28 11:32:43;;;;;;;13.63;4.13;;;35.00;34.20;;;;;;5060959;28;20025;-77
2021/05/28 11:35:10;;;;;;;7.13;3.67;;;34.20;35.00;;;;;;5060690;28;20035;-77
2021/05/28 11:37:43;;;;;;;6.38;3.60;;;33.60;35.50;;;;;;5063367;28;20031;-77
2021/05/28 11:40:24;;;;;;;11.53;4.80;;;33.10;35.90;;;;;;5063675;28;20023;-77
2021/05/28 11:42:51;;;;;;;7.70;3.20;;;32.60;36.70;;;;;;5064023;28;20021;-77
2021/05/28 11:45:19;;;;;;;6.93;3.45;;;32.20;37.00;;;;;;5063136;28;20024;-78
2021/05/28 11:47:46;;;;;;;6.30;3.58;;;31.70;37.50;;;;;;5061889;28;20678;-77
2021/05/28 11:50:16;;;;;;;4.05;3.67;;;31.20;38.00;;;;;;5061893;28;20021;-75
2021/05/28 11:53:02;;;;;;;6.65;4.13;;;30.80;38.70;;;;;;5061889;28;20387;-76
2021/05/28 11:55:30;;;;;;;9.63;4.57;;;30.30;39.60;;;;;;5062690;28;20390;-78
2021/05/28 11:58:01;;;;;;;11.60;4.22;;;30.00;40.10;;;;;;5062441;28;20029;-78
2021/05/28 12:00:27;;;;;;;11.88;5.18;;;29.70;40.80;;;;;;5061567;28;20082;-78
2021/05/28 12:02:57;;;;;;;9.30;5.70;;;29.40;42.40;;;;;;5063006;28;20450;-77
2021/05/28 12:05:34;;;;;;;9.13;5.80;;;29.00;44.60;;;;;;5063728;28;20388;-77
2021/05/28 12:08:14;;;;;;;8.20;4.97;;;28.60;46.10;;;;;;5078421;28;20029;-77
2021/05/28 12:14:02;;;;;;;7.47;5.30;;;27.80;48.20;;;;;;5065955;28;20116;-77
2021/05/28 12:16:28;;;;;;;7.88;4.82;;;27.50;49.00;;;;;;5067057;28;20024;-77
2021/05/28 12:18:53;;;;;;;11.70;5.80;;;27.30;50.00;;;;;;5070866;28;20437;-77
2021/05/28 12:21:20;;;;;;;7.35;5.88;;;27.20;50.70;;;;;;5067417;28;20100;-77
2021/05/28 12:23:56;;;;;;;9.55;6.25;;;27.20;51.20;;;;;;5062011;28;20027;-77
2021/05/28 12:26:24;;;;;;;11.23;6.30;;;27.10;51.80;;;;;;5063001;28;20016;-77
2021/05/28 12:28:54;;;;;;;9.82;6.57;;;27.20;52.40;;;;;;5061436;28;20113;-77
2021/05/28 12:31:23;;;;;;;9.30;7.40;;;27.40;52.90;;;;;;5061335;28;20029;-77
2021/05/28 12:34:01;;;;;;;14.45;6.75;;;27.70;52.80;;;;;;5062117;28;20180;-77
2021/05/28 12:36:29;;;;;;;13.18;7.20;;;28.20;52.80;;;;;;5064543;28;20082;-77
2021/05/28 12:38:55;;;;;;;19.27;8.68;;;28.80;52.70;;;;;;5070258;28;20021;-76
2021/05/28 12:41:23;;;;;;;17.35;8.45;;;29.50;52.20;;;;;;5055220;28;20049;-77
2021/05/28 12:43:52;;;;;;;21.15;11.13;;;30.20;52.20;;;;;;5051955;28;20101;-76
2021/05/28 12:46:22;;;;;;;26.15;11.45;;;30.90;50.80;;;;;;5065352;28;20027;-76
2021/05/28 12:48:52;;;;;;;24.08;12.32;;;31.40;49.60;;;;;;5058084;28;20115;-76
2021/05/28 12:51:20;;;;;;;21.10;10.98;;;31.80;48.70;;;;;;5064245;28;20029;-77